Main page
METAR-TAF:

METAR-TAF

Airports :

Åre Östersund Airport

Östersund-Frösön, Sweden

latitude: 63-11N, longitude: 014-30E, elevation: 376 m

Current weather observation

The report was made 27 minutes ago, at 20:50 UTC
Wind 16 kt from the West/Northwest
Temperature 2°C
Humidity 93%
Pressure 971 hPa
Visibility 10 km or more
Scattered clouds at a height of 1800 ft
Broken clouds at a height of 3300 ft

METAR: ESNZ 172050Z 30016KT 9999 SCT018 BKN033 02/01 Q0971

Time: 22:17 (21:17 UTC)

Forecast

The report was made 47 minutes ago, at 20:30 UTC
Forecast valid from 17 at 21 UTC to 17 at 23 UTC
Wind 9 kt from the West
Visibility 10 km or more
Scattered clouds at a height of 1800 ft
Broken clouds at a height of 4500 ft
light drizzle
Temporary
from 17 at 21 UTC to 17 at 23 UTC
Visibility: 3000 m
Broken clouds at a height of 1200 ft
rain

TAF: ESNZ 172030Z 1721/1723 27009KT 9999 -DZ SCT018 BKN045 TEMPO 1721/1723 3000 RA BKN012

Weather observations and forecasts of more than 4000 airports (METAR and TAF reports).

The available stations are represented by yellow and red dots on the map.

Hover mouse over dot to see the name of the station.

Then click to see weather observations and forecasts.

To change the map : click on the green buttons with a black cross to zoom in, on the green button with a dash to zoom out, or on the green arrows for adjacent maps.


METAR-TAF: